Time;durP1;ratioP1;P1;durP2;ratioP2;P2;SDS_P1;SDS_P2;PMS_P1;PMS_P2;Temp;Humidity;BMP_temperature;BMP_pressure;BME280_temperature;BME280_humidity;BME280_pressure;Samples;Min_cycle;Max_cycle;Signal;HPM_P1;HPM_P2
2021/09/16 00:00:04;;;;;;;;;;;;;;;22.75;85.65;101479.31;7282614;19;152162;-51
2021/09/16 00:02:31;;;;;;;;;;;;;;;22.75;85.41;101482.13;7282621;19;153495;-51
2021/09/16 00:04:58;;;;;;;;;;;;;;;22.75;85.36;101478.47;7280150;19;153761;-52
2021/09/16 00:07:25;;;;;;;;;;;;;;;22.74;85.86;101483.25;7285440;19;152153;-52
2021/09/16 00:09:52;;;;;;;;;;;;;;;22.73;85.30;101486.38;7291916;19;152815;-51
2021/09/16 00:12:18;;;;;;;;;;;;;;;22.74;85.47;101482.44;7284663;19;151669;-51
2021/09/16 00:14:45;;;;;;;;;;;;;;;22.74;85.61;101485.25;7285112;19;152578;-51
2021/09/16 00:17:12;;;;;;;;;;;;;;;22.72;85.48;101481.88;7282377;19;154134;-52
2021/09/16 00:19:39;;;;;;;;;;;;;;;22.72;85.36;101479.06;7284169;19;151729;-51
2021/09/16 00:22:06;;;;;;;;;;;;;;;22.69;85.69;101485.31;7282187;19;151788;-50
2021/09/16 00:24:33;;;;;;;;;;;;;;;22.70;85.63;101487.00;7284541;19;153458;-51
2021/09/16 00:27:00;;;;;;;;;;;;;;;22.67;85.49;101479.16;7282763;19;152177;-51
2021/09/16 00:29:27;;;;;;;;;;;;;;;22.66;85.62;101485.94;7285175;19;153062;-51
2021/09/16 00:31:54;;;;;;;;;;;;;;;22.64;85.67;101474.97;7287120;19;152764;-52
2021/09/16 00:34:20;;;;;;;;;;;;;;;22.65;85.16;101470.16;7283045;19;152525;-51
2021/09/16 00:36:47;;;;;;;;;;;;;;;22.63;85.42;101476.94;7284074;19;153171;-51
2021/09/16 00:39:14;;;;;;;;;;;;;;;22.61;85.69;101478.41;7282849;19;151769;-51
2021/09/16 00:41:41;;;;;;;;;;;;;;;22.62;85.63;101483.72;7282060;19;153080;-51
2021/09/16 00:44:08;;;;;;;;;;;;;;;22.63;85.97;101488.22;7279443;19;153195;-51
2021/09/16 00:46:35;;;;;;;;;;;;;;;22.63;85.67;101485.38;7281849;19;151667;-52
2021/09/16 00:49:04;;;;;;;;;;;;;;;22.63;85.98;101488.22;7284032;19;153158;-52
2021/09/16 00:51:31;;;;;;;;;;;;;;;22.62;85.71;101489.34;7281896;19;153630;-51
2021/09/16 00:53:58;;;;;;;;;;;;;;;22.60;85.64;101497.28;7291906;19;151645;-51
2021/09/16 00:56:25;;;;;;;;;;;;;;;22.61;85.77;101492.50;7279132;19;154620;-51
2021/09/16 00:58:53;;;;;;;;;;;;;;;22.59;85.67;101495.59;7268743;19;151828;-52
2021/09/16 01:01:20;;;;;;;;;;;;;;;22.60;85.56;101496.44;7282691;19;153537;-52
2021/09/16 01:03:47;;;;;;;;;;;;;;;22.59;85.86;101500.41;7282881;19;154083;-51
2021/09/16 01:06:14;;;;;;;;;;;;;;;22.57;85.32;101499.91;7280244;19;153998;-51
2021/09/16 01:08:41;;;;;;;;;;;;;;;22.59;85.50;101509.69;7284239;19;152769;-52
2021/09/16 01:11:08;;;;;;;;;;;;;;;22.57;85.38;101503.56;7280352;19;153246;-51
2021/09/16 01:13:34;;;;;;;;;;;;;;;22.56;85.57;101503.84;7280809;19;151711;-51
2021/09/16 01:16:01;;;;;;;;;;;;;;;22.57;85.80;101508.34;7289093;19;153147;-52
2021/09/16 01:18:28;;;;;;;;;;;;;;;22.56;85.97;101515.94;7283455;19;153839;-52
2021/09/16 01:20:55;;;;;;;;;;;;;;;22.54;85.79;101506.97;7283350;19;153133;-52
2021/09/16 01:23:22;;;;;;;;;;;;;;;22.53;86.12;101505.28;7278772;19;152318;-51
2021/09/16 01:25:49;;;;;;;;;;;;;;;22.54;86.04;101503.31;7281047;19;152176;-52
2021/09/16 01:28:16;;;;;;;;;;;;;;;22.52;86.11;101506.44;7282956;19;153865;-51
2021/09/16 01:30:44;;;;;;;;;;;;;;;22.52;86.37;101506.44;7280994;19;153692;-52
2021/09/16 01:33:12;;;;;;;;;;;;;;;22.52;86.13;101506.44;7282562;19;151942;-52
2021/09/16 01:35:39;;;;;;;;;;;;;;;22.50;85.98;101508.72;7287054;19;153185;-51
2021/09/16 01:38:06;;;;;;;;;;;;;;;22.52;86.53;101503.63;7279558;19;151915;-51
2021/09/16 01:40:35;;;;;;;;;;;;;;;22.52;86.45;101506.44;7279854;19;152180;-53
2021/09/16 01:43:02;;;;;;;;;;;;;;;22.50;86.39;101496.63;7276440;19;154849;-52
2021/09/16 01:45:28;;;;;;;;;;;;;;;22.50;86.11;101497.47;7278640;19;151897;-50
2021/09/16 01:47:55;;;;;;;;;;;;;;;22.51;86.46;101495.47;7283460;19;153715;-52
2021/09/16 01:50:23;;;;;;;;;;;;;;;22.52;86.00;101505.63;7281806;19;153994;-51
2021/09/16 01:52:51;;;;;;;;;;;;;;;22.50;86.23;101499.44;7278994;19;151984;-52
2021/09/16 01:55:19;;;;;;;;;;;;;;;22.47;86.30;101498.09;7280309;19;153429;-51
2021/09/16 01:57:46;;;;;;;;;;;;;;;22.48;86.19;101499.78;7286364;19;153263;-52
2021/09/16 02:00:13;;;;;;;;;;;;;;;22.50;86.48;101505.06;7277603;19;153366;-52
2021/09/16 02:02:41;;;;;;;;;;;;;;;22.49;85.75;101497.75;7282460;19;152651;-51
2021/09/16 02:05:08;;;;;;;;;;;;;;;22.48;85.33;101502.59;7288212;19;152214;-51
2021/09/16 02:07:35;;;;;;;;;;;;;;;22.47;85.64;101509.34;7285810;19;152769;-52
2021/09/16 02:10:04;;;;;;;;;;;;;;;22.46;85.12;101516.13;7286728;19;153721;-51
2021/09/16 02:12:31;;;;;;;;;;;;;;;22.46;84.15;101507.69;7286935;19;151514;-51
2021/09/16 02:14:58;;;;;;;;;;;;;;;22.35;82.63;101508.16;7288644;19;151705;-54
2021/09/16 02:17:25;;;;;;;;;;;;;;;22.29;81.78;101513.03;7288157;19;153095;-63
2021/09/16 02:19:52;;;;;;;;;;;;;;;22.40;84.07;101497.63;7293141;19;151590;-50
2021/09/16 02:22:19;;;;;;;;;;;;;;;22.41;84.24;101504.94;7287148;19;153474;-52
2021/09/16 02:24:46;;;;;;;;;;;;;;;22.42;84.09;101509.44;7285645;19;152031;-51
2021/09/16 02:27:12;;;;;;;;;;;;;;;22.42;84.20;101505.78;7288300;19;153355;-51
2021/09/16 02:29:39;;;;;;;;;;;;;;;22.38;84.32;101516.00;7286307;19;154144;-52
2021/09/16 02:32:07;;;;;;;;;;;;;;;22.37;83.97;101506.69;7288914;19;152152;-52
2021/09/16 02:34:33;;;;;;;;;;;;;;;22.38;84.38;101514.00;7286178;19;152486;-51
2021/09/16 02:37:00;;;;;;;;;;;;;;;22.38;84.45;101514.00;7285786;19;154545;-52
2021/09/16 02:39:27;;;;;;;;;;;;;;;22.40;84.60;101522.97;7288347;19;151891;-51
2021/09/16 02:41:54;;;;;;;;;;;;;;;22.38;84.35;101525.28;7293340;19;151745;-52
2021/09/16 02:44:21;;;;;;;;;;;;;;;22.38;84.21;101519.66;7288471;19;151504;-52
2021/09/16 02:46:47;;;;;;;;;;;;;;;22.36;84.67;101524.72;7285310;19;153200;-52
2021/09/16 02:49:14;;;;;;;;;;;;;;;22.35;84.39;101525.06;7284260;19;153756;-51
2021/09/16 02:51:41;;;;;;;;;;;;;;;22.30;84.51;101525.97;7286044;19;152391;-52
2021/09/16 02:54:08;;;;;;;;;;;;;;;22.33;84.29;101524.53;7286409;19;152788;-52
2021/09/16 02:56:35;;;;;;;;;;;;;;;22.33;84.21;101524.53;7280366;19;152706;-52
2021/09/16 02:59:02;;;;;;;;;;;;;;;22.32;84.55;101522.84;7284540;19;153617;-51
2021/09/16 03:01:29;;;;;;;;;;;;;;;22.33;84.28;101522.53;7287986;19;153397;-51
2021/09/16 03:03:55;;;;;;;;;;;;;;;22.31;84.57;101523.97;7289367;19;153438;-51
2021/09/16 03:06:22;;;;;;;;;;;;;;;22.29;84.17;101520.66;7288302;19;152733;-51
2021/09/16 03:08:49;;;;;;;;;;;;;;;22.28;84.70;101525.44;7282675;19;154098;-51
2021/09/16 03:11:16;;;;;;;;;;;;;;;22.28;84.31;101527.41;7286540;19;152473;-51
2021/09/16 03:13:43;;;;;;;;;;;;;;;22.27;84.43;101531.38;7284472;19;152297;-51
2021/09/16 03:16:10;;;;;;;;;;;;;;;22.28;84.45;101533.88;7284837;19;154228;-51
2021/09/16 03:18:36;;;;;;;;;;;;;;;22.26;84.40;101533.34;7285686;19;151842;-52
2021/09/16 03:21:03;;;;;;;;;;;;;;;22.24;84.48;101532.81;7273400;19;153285;-51
2021/09/16 03:23:30;;;;;;;;;;;;;;;22.24;84.68;101535.63;7281458;19;153315;-51
2021/09/16 03:25:57;;;;;;;;;;;;;;;22.24;84.80;101544.09;7292952;19;152293;-52
2021/09/16 03:28:24;;;;;;;;;;;;;;;22.27;84.55;101540.66;7282360;19;153384;-51
2021/09/16 03:30:50;;;;;;;;;;;;;;;22.25;84.57;101534.50;7285413;19;151785;-52
2021/09/16 03:33:17;;;;;;;;;;;;;;;22.26;84.95;101533.34;7282744;19;152615;-51
2021/09/16 03:35:44;;;;;;;;;;;;;;;22.24;84.95;101527.19;7284332;19;153414;-51
2021/09/16 03:38:11;;;;;;;;;;;;;;;22.23;84.66;101525.53;7285308;19;151863;-51
2021/09/16 03:40:38;;;;;;;;;;;;;;;22.23;85.10;101531.16;7285772;19;153234;-52
2021/09/16 03:43:06;;;;;;;;;;;;;;;22.20;85.04;101526.13;7283268;19;153975;-51
2021/09/16 03:45:33;;;;;;;;;;;;;;;22.22;84.83;101534.25;7290860;19;153230;-51
2021/09/16 03:47:59;;;;;;;;;;;;;;;22.22;84.76;101526.66;7282365;19;154139;-52
2021/09/16 03:50:26;;;;;;;;;;;;;;;22.23;85.13;101531.16;7283175;19;152212;-52
2021/09/16 03:52:53;;;;;;;;;;;;;;;22.21;84.96;101522.19;7284793;19;153720;-51
2021/09/16 03:55:20;;;;;;;;;;;;;;;22.18;84.75;101522.78;7282989;19;152547;-52
2021/09/16 03:57:46;;;;;;;;;;;;;;;22.21;85.10;101518.53;7285969;19;151710;-51
2021/09/16 04:00:13;;;;;;;;;;;;;;;22.21;84.52;101513.75;7275465;19;152650;-51
2021/09/16 04:02:40;;;;;;;;;;;;;;;22.24;85.14;101512.28;7276934;19;152612;-51
2021/09/16 04:05:07;;;;;;;;;;;;;;;22.22;84.79;101517.38;7285505;19;151570;-50
2021/09/16 04:07:34;;;;;;;;;;;;;;;22.20;85.24;101517.69;7289866;19;153583;-51
2021/09/16 04:10:03;;;;;;;;;;;;;;;22.18;84.57;101523.63;7280176;19;151945;-51
2021/09/16 04:12:29;;;;;;;;;;;;;;;22.19;84.74;101524.47;7281326;19;152050;-50
2021/09/16 04:14:56;;;;;;;;;;;;;;;22.17;84.86;101527.56;7280246;19;153882;-50
2021/09/16 04:17:23;;;;;;;;;;;;;;;22.16;85.02;101525.09;7283941;19;151707;-51
2021/09/16 04:19:50;;;;;;;;;;;;;;;22.17;85.21;101519.13;7280154;19;152900;-51
2021/09/16 04:22:17;;;;;;;;;;;;;;;22.16;85.35;101513.81;7283870;19;153543;-52
2021/09/16 04:24:44;;;;;;;;;;;;;;;22.15;85.00;101518.63;7281363;19;152238;-51
2021/09/16 04:27:13;;;;;;;;;;;;;;;22.17;85.02;101521.09;7283904;19;152423;-52
2021/09/16 04:29:40;;;;;;;;;;;;;;;22.16;84.99;101517.47;7290234;19;154287;-51
2021/09/16 04:32:07;;;;;;;;;;;;;;;22.17;85.17;101515.47;7281479;19;152736;-51
2021/09/16 04:34:34;;;;;;;;;;;;;;;22.18;84.76;101525.59;7279432;19;153992;-50
2021/09/16 04:37:01;;;;;;;;;;;;;;;22.14;84.71;101521.72;7283849;19;151924;-51
2021/09/16 04:39:27;;;;;;;;;;;;;;;22.14;84.38;101516.09;7280463;19;153369;-51
2021/09/16 04:41:54;;;;;;;;;;;;;;;22.16;84.85;101519.44;7279408;19;153137;-51
2021/09/16 04:44:21;;;;;;;;;;;;;;;22.13;84.29;101511.59;7277910;19;151951;-50
2021/09/16 04:46:48;;;;;;;;;;;;;;;22.14;84.61;101521.72;7282584;19;152313;-51
2021/09/16 04:49:14;;;;;;;;;;;;;;;22.14;84.40;101521.72;7281658;19;152587;-51
2021/09/16 04:51:41;;;;;;;;;;;;;;;22.14;84.85;101530.16;7288895;19;151528;-51
2021/09/16 04:54:08;;;;;;;;;;;;;;;22.12;84.65;101519.19;7281359;19;152593;-51
2021/09/16 04:56:35;;;;;;;;;;;;;;;22.12;84.10;101518.41;7278939;19;151737;-52
2021/09/16 04:59:04;;;;;;;;;;;;;;;22.11;84.57;101528.81;7280080;19;151766;-51
2021/09/16 05:01:31;;;;;;;;;;;;;;;22.09;84.41;101524.59;7281920;19;153598;-52
2021/09/16 05:03:58;;;;;;;;;;;;;;;22.07;84.62;101529.72;7279692;19;152087;-51
2021/09/16 05:06:25;;;;;;;;;;;;;;;22.06;84.43;101531.69;7283505;19;152185;-52
2021/09/16 05:08:52;;;;;;;;;;;;;;;22.08;84.19;101525.75;7280468;19;153873;-51
2021/09/16 05:11:19;;;;;;;;;;;;;;;22.06;84.58;101530.84;7280806;19;151789;-50
2021/09/16 05:13:45;;;;;;;;;;;;;;;22.09;84.38;101535.88;7285933;19;153488;-51
2021/09/16 05:16:12;;;;;;;;;;;;;;;22.06;84.54;101531.69;7281855;19;152300;-52
2021/09/16 05:18:39;;;;;;;;;;;;;;;22.06;84.41;101531.69;7281125;19;153690;-51
2021/09/16 05:21:06;;;;;;;;;;;;;;;22.08;84.33;101539.81;7278276;19;153388;-52
2021/09/16 05:23:33;;;;;;;;;;;;;;;22.08;84.59;101534.19;7281070;19;152584;-51
2021/09/16 05:25:59;;;;;;;;;;;;;;;22.08;84.37;101532.22;7281505;19;152469;-50
2021/09/16 05:28:26;;;;;;;;;;;;;;;22.05;84.45;101535.66;7279299;19;153835;-51
2021/09/16 05:30:53;;;;;;;;;;;;;;;22.06;84.56;101540.16;7281898;19;152074;-52
2021/09/16 05:33:20;;;;;;;;;;;;;;;22.06;84.50;101544.94;7282209;19;153358;-52
2021/09/16 05:35:47;;;;;;;;;;;;;;;22.05;84.82;101541.28;7288788;19;151921;-52
2021/09/16 05:38:14;;;;;;;;;;;;;;;22.04;84.80;101538.75;7289406;19;152945;-51
2021/09/16 05:40:41;;;;;;;;;;;;;;;22.03;84.38;101537.09;7287336;19;153895;-51
2021/09/16 05:43:08;;;;;;;;;;;;;;;22.03;84.62;101540.72;7286110;19;151790;-51
2021/09/16 05:45:36;;;;;;;;;;;;;;;22.02;84.89;101541.91;7285634;19;153595;-52
2021/09/16 05:48:03;;;;;;;;;;;;;;;22.03;84.89;101543.53;7287421;19;152644;-51
2021/09/16 05:50:33;;;;;;;;;;;;;;;22.03;84.84;101543.53;7286798;19;151853;-51
2021/09/16 05:53:00;;;;;;;;;;;;;;;22.01;84.81;101551.47;7285730;19;153295;-50
2021/09/16 05:55:28;;;;;;;;;;;;;;;22.01;84.72;101545.00;7294787;19;153269;-52
2021/09/16 05:57:55;;;;;;;;;;;;;;;22.01;85.08;101551.47;7286236;19;153159;-52
2021/09/16 06:00:23;;;;;;;;;;;;;;;22.00;85.20;101555.41;7286704;19;152217;-52
2021/09/16 06:02:50;;;;;;;;;;;;;;;21.99;85.22;101559.38;7287103;19;151581;-51
2021/09/16 06:05:17;;;;;;;;;;;;;;;22.00;85.48;101555.41;7283511;19;151771;-52
2021/09/16 06:07:44;;;;;;;;;;;;;;;21.99;85.48;101550.09;7284176;19;153896;-51
2021/09/16 06:10:13;;;;;;;;;;;;;;;21.99;85.63;101550.94;7286298;19;151949;-52
2021/09/16 06:12:40;;;;;;;;;;;;;;;21.99;85.70;101559.38;7281622;19;153303;-51
2021/09/16 06:15:07;;;;;;;;;;;;;;;21.99;85.81;101562.19;7284514;19;153890;-52
2021/09/16 06:17:34;;;;;;;;;;;;;;;22.01;85.80;101557.09;7291680;19;151963;-51
2021/09/16 06:20:03;;;;;;;;;;;;;;;22.03;86.15;101565.25;7283977;19;153690;-51
2021/09/16 06:22:30;;;;;;;;;;;;;;;22.07;86.78;101564.34;7285512;19;154403;-51
2021/09/16 06:24:57;;;;;;;;;;;;;;;22.12;86.60;101572.69;7283316;19;153446;-51
2021/09/16 06:27:23;;;;;;;;;;;;;;;22.11;86.07;101571.03;7285413;19;152193;-52
2021/09/16 06:29:51;;;;;;;;;;;;;;;22.12;85.56;101580.31;7285934;19;152235;-51
2021/09/16 06:32:18;;;;;;;;;;;;;;;22.11;84.38;101585.09;7285599;19;152904;-51
2021/09/16 06:34:48;;;;;;;;;;;;;;;22.08;83.60;101576.41;7286304;19;154018;-51
2021/09/16 06:37:15;;;;;;;;;;;;;;;21.95;75.84;101597.69;7285622;19;151711;-52
2021/09/16 06:39:43;;;;;;;;;;;;;;;21.90;73.41;101596.88;7293816;19;152646;-51
2021/09/16 06:42:10;;;;;;;;;;;;;;;21.88;72.83;101602.00;7286595;19;151852;-51
2021/09/16 06:44:37;;;;;;;;;;;;;;;21.65;73.35;101593.28;7285820;19;152823;-51
2021/09/16 06:47:05;;;;;;;;;;;;;;;21.39;72.87;101589.13;7283366;19;154378;-51
2021/09/16 06:49:36;;;;;;;;;;;;;;;21.30;72.50;101588.91;7283779;19;151878;-51
2021/09/16 06:52:03;;;;;;;;;;;;;;;21.13;72.81;101596.13;7285457;19;153152;-51
2021/09/16 06:54:30;;;;;;;;;;;;;;;21.17;72.35;101595.22;7285935;19;153786;-51
2021/09/16 06:56:57;;;;;;;;;;;;;;;21.14;72.60;101600.63;7283021;19;151906;-51
2021/09/16 06:59:24;;;;;;;;;;;;;;;21.15;72.89;101607.91;7283103;19;152305;-50
2021/09/16 07:01:51;;;;;;;;;;;;;;;21.00;72.62;101605.22;7293207;19;154254;-51
2021/09/16 07:04:19;;;;;;;;;;;;;;;20.82;72.87;101606.78;7285889;19;152794;-51
2021/09/16 07:06:46;;;;;;;;;;;;;;;20.80;73.16;101600.66;7285297;19;153526;-51
2021/09/16 07:09:13;;;;;;;;;;;;;;;20.83;73.21;101606.50;7287430;19;151909;-50
2021/09/16 07:11:40;;;;;;;;;;;;;;;20.62;73.74;101605.00;7282124;19;153101;-51
2021/09/16 07:14:06;;;;;;;;;;;;;;;20.64;73.65;101615.94;7279028;19;153855;-51
2021/09/16 07:16:33;;;;;;;;;;;;;;;20.65;73.67;101620.41;7282719;19;151750;-51
2021/09/16 07:19:01;;;;;;;;;;;;;;;20.59;73.85;101618.78;7284342;19;152883;-50
2021/09/16 07:21:28;;;;;;;;;;;;;;;20.66;74.28;101616.50;7284978;19;153809;-62
2021/09/16 07:23:55;;;;;;;;;;;;;;;20.79;76.01;101618.63;7289572;19;152055;-51
2021/09/16 07:26:23;;;;;;;;;;;;;;;20.85;76.44;101606.19;7281207;19;154190;-53
2021/09/16 07:28:55;;;;;;;;;;;;;;;20.89;77.77;101610.13;7282614;19;152084;-51
2021/09/16 07:31:22;;;;;;;;;;;;;;;20.94;78.01;101601.63;7284500;19;151716;-51
2021/09/16 07:33:49;;;;;;;;;;;;;;;20.99;78.56;101618.41;7282354;19;152891;-51
2021/09/16 07:36:16;;;;;;;;;;;;;;;21.03;78.64;101613.88;7285726;19;151886;-51
2021/09/16 07:38:43;;;;;;;;;;;;;;;21.07;78.47;101617.81;7282302;19;152580;-52
2021/09/16 07:41:10;;;;;;;;;;;;;;;21.10;78.54;101611.59;7283922;19;152323;-52
2021/09/16 07:43:37;;;;;;;;;;;;;;;21.14;78.11;101609.03;7290497;19;152057;-51
2021/09/16 07:46:04;;;;;;;;;;;;;;;21.15;78.45;101605.09;7283816;19;153671;-52
2021/09/16 07:48:31;;;;;;;;;;;;;;;21.19;78.68;101615.47;7283574;19;152067;-52
2021/09/16 07:50:58;;;;;;;;;;;;;;;21.18;78.17;101612.94;7284330;19;152219;-51
2021/09/16 07:53:27;;;;;;;;;;;;;;;21.21;78.25;101617.97;7281465;19;154108;-53
2021/09/16 07:55:54;;;;;;;;;;;;;;;21.27;78.48;101619.59;7283080;19;152025;-51
2021/09/16 07:58:21;;;;;;;;;;;;;;;21.26;78.59;101624.38;7282009;19;153091;-52
2021/09/16 08:00:48;;;;;;;;;;;;;;;21.27;78.10;101617.63;7282133;19;153812;-52
2021/09/16 08:03:16;;;;;;;;;;;;;;;21.29;78.38;101617.34;7282769;19;151931;-50
2021/09/16 08:05:43;;;;;;;;;;;;;;;21.30;78.47;101621.81;7287418;19;153600;-51
2021/09/16 08:08:10;;;;;;;;;;;;;;;21.30;78.57;101614.19;7284507;19;152176;-51
2021/09/16 08:10:37;;;;;;;;;;;;;;;21.34;78.39;101613.63;7284895;19;153543;-50
2021/09/16 08:13:04;;;;;;;;;;;;;;;21.34;78.57;101619.25;7283285;19;153382;-51
2021/09/16 08:15:31;;;;;;;;;;;;;;;21.33;79.30;101609.97;7276032;19;151950;-49
2021/09/16 08:17:59;;;;;;;;;;;;;;;21.34;79.03;101608.84;7284365;19;151640;-52
2021/09/16 08:20:27;;;;;;;;;;;;;;;21.40;79.01;101607.63;7281134;19;152706;-51
2021/09/16 08:22:54;;;;;;;;;;;;;;;21.46;79.76;101609.25;7284955;19;152170;-51
2021/09/16 08:25:21;;;;;;;;;;;;;;;21.52;82.15;101607.25;7282255;19;152048;-51
2021/09/16 08:27:48;;;;;;;;;;;;;;;21.53;82.54;101606.09;7290061;19;153990;-63
2021/09/16 08:30:16;;;;;;;;;;;;;;;21.55;83.34;101606.63;7285302;19;152643;-50
2021/09/16 08:32:43;;;;;;;;;;;;;;;21.54;82.93;101610.56;7280455;19;152767;-50
2021/09/16 08:35:11;;;;;;;;;;;;;;;21.52;82.71;101610.03;7283369;19;152374;-51
2021/09/16 08:37:39;;;;;;;;;;;;;;;21.51;82.56;101603.59;7281079;19;153290;-51
2021/09/16 08:40:07;;;;;;;;;;;;;;;21.52;82.75;101618.47;7281510;19;154443;-51
2021/09/16 08:42:36;;;;;;;;;;;;;;;21.53;82.90;101603.28;7280926;19;151813;-51
2021/09/16 08:45:04;;;;;;;;;;;;;;;21.53;83.29;101606.91;7279492;19;152911;-50
2021/09/16 08:47:32;;;;;;;;;;;;;;;21.52;82.87;101604.41;7281041;19;153630;-50
2021/09/16 08:49:59;;;;;;;;;;;;;;;21.53;82.78;101615.34;7290818;19;151853;-50
2021/09/16 08:52:36;;;;;;;;;;;;;;;21.52;83.21;101615.66;7281921;19;154198;-51
2021/09/16 08:55:04;;;;;;;;;;;;;;;21.54;82.75;101610.56;7279843;19;151791;-50
2021/09/16 08:57:34;;;;;;;;;;;;;;;21.52;82.90;101610.03;7283753;19;151670;-50
2021/09/16 09:00:05;;;;;;;;;;;;;;;21.53;82.78;101612.53;7282019;19;153178;-50
2021/09/16 09:02:34;;;;;;;;;;;;;;;21.52;83.12;101615.66;7281825;19;151871;-50
2021/09/16 09:05:02;;;;;;;;;;;;;;;21.52;83.22;101604.41;7278107;19;153163;-51
2021/09/16 09:07:32;;;;;;;;;;;;;;;21.53;82.79;101604.09;7281038;19;152376;-51
2021/09/16 09:10:00;;;;;;;;;;;;;;;21.54;82.51;101600.16;7280159;19;152551;-51
2021/09/16 09:12:33;;;;;;;;;;;;;;;21.54;82.89;101607.75;7295914;19;152771;-51
2021/09/16 09:15:06;;;;;;;;;;;;;;;21.54;82.63;101600.16;7283297;19;152313;-51
2021/09/16 09:17:34;;;;;;;;;;;;;;;21.58;82.14;101604.03;7286619;19;153515;-50
2021/09/16 09:20:08;;;;;;;;;;;;;;;21.58;82.09;101614.44;7285956;19;153955;-50
2021/09/16 09:22:36;;;;;;;;;;;;;;;21.58;81.88;101609.66;7286474;19;151944;-51
2021/09/16 09:25:06;;;;;;;;;;;;;;;21.59;81.30;101619.78;7283420;19;152725;-51
2021/09/16 09:27:35;;;;;;;;;;;;;;;21.58;81.35;101609.66;7284491;19;152445;-51
2021/09/16 09:30:08;;;;;;;;;;;;;;;21.61;81.12;101614.72;7284885;19;151621;-51
2021/09/16 09:32:38;;;;;;;;;;;;;;;21.61;81.28;101611.91;7287918;19;152143;-51
2021/09/16 09:35:16;;;;;;;;;;;;;;;21.59;81.28;101602.91;7290794;19;152278;-51
2021/09/16 09:37:45;;;;;;;;;;;;;;;21.62;81.33;101610.75;7285873;19;151719;-51
2021/09/16 09:40:12;;;;;;;;;;;;;;;21.62;80.75;101605.13;7285126;19;154301;-50
2021/09/16 09:42:39;;;;;;;;;;;;;;;21.65;80.74;101601.72;7288447;19;151866;-51
2021/09/16 09:45:08;;;;;;;;;;;;;;;21.64;80.55;101602.84;7284874;19;152133;-51
2021/09/16 09:47:36;;;;;;;;;;;;;;;21.66;80.48;101594.13;7287521;19;153467;-50
2021/09/16 09:50:05;;;;;;;;;;;;;;;21.65;80.48;101595.25;7287836;19;151851;-50
2021/09/16 09:52:32;;;;;;;;;;;;;;;21.65;80.70;101598.06;7287296;19;153103;-51
2021/09/16 09:55:10;;;;;;;;;;;;;;;21.65;80.56;101604.53;7292811;19;153479;-51
2021/09/16 09:57:37;;;;;;;;;;;;;;;21.68;80.27;101606.75;7286975;19;153344;-51
2021/09/16 10:00:08;;;;;;;;;;;;;;;21.68;80.36;101603.09;7284389;19;152893;-50
2021/09/16 10:02:39;;;;;;;;;;;;;;;21.68;80.47;101609.56;7288026;19;151723;-51
2021/09/16 10:05:09;;;;;;;;;;;;;;;21.68;80.05;101606.75;7285247;19;153431;-51
2021/09/16 10:07:38;;;;;;;;;;;;;;;21.70;80.28;101607.28;7287483;19;153399;-51
2021/09/16 10:10:08;;;;;;;;;;;;;;;21.70;80.05;101607.28;7287689;19;151951;-50
2021/09/16 10:12:48;;;;;;;;;;;;;;;21.73;80.25;101600.22;7285259;19;153887;-51
2021/09/16 10:15:22;;;;;;;;;;;;;;;21.73;80.11;101598.25;7282992;19;153713;-51
2021/09/16 10:17:50;;;;;;;;;;;;;;;21.74;80.03;101601.91;7290603;19;152720;-51
2021/09/16 10:20:18;;;;;;;;;;;;;;;21.75;79.96;101597.94;7283805;19;153742;-51
2021/09/16 10:22:47;;;;;;;;;;;;;;;21.76;80.21;101596.78;7282795;19;153043;-51
2021/09/16 10:25:15;;;;;;;;;;;;;;;21.77;80.12;101589.19;7285369;19;153435;-51
2021/09/16 10:27:44;;;;;;;;;;;;;;;21.77;80.16;101597.63;7284402;19;154401;-51
2021/09/16 10:30:15;;;;;;;;;;;;;;;21.77;80.21;101590.03;7281142;19;152299;-50
2021/09/16 10:32:42;;;;;;;;;;;;;;;21.78;79.79;101590.88;7288029;19;153607;-50
2021/09/16 10:35:11;;;;;;;;;;;;;;;21.78;80.08;101590.88;7282270;19;153353;-50
2021/09/16 10:37:38;;;;;;;;;;;;;;;21.78;79.92;101580.47;7287051;19;152236;-50
2021/09/16 10:40:08;;;;;;;;;;;;;;;21.81;80.10;101591.09;7290701;19;152785;-50
2021/09/16 10:42:38;;;;;;;;;;;;;;;21.83;79.76;101588.84;7284482;19;151887;-51
2021/09/16 10:45:06;;;;;;;;;;;;;;;21.82;80.02;101580.69;7284929;19;153658;-50
2021/09/16 10:47:34;;;;;;;;;;;;;;;21.83;79.78;101580.41;7284090;19;154009;-51
2021/09/16 10:50:19;;;;;;;;;;;;;;;21.86;79.50;101584.56;7284056;19;151917;-51
2021/09/16 10:52:46;;;;;;;;;;;;;;;21.87;79.53;101589.91;7286448;19;153582;-50
2021/09/16 10:55:13;;;;;;;;;;;;;;;21.87;79.53;101586.25;7283123;19;153302;-51
2021/09/16 10:57:40;;;;;;;;;;;;;;;21.87;79.96;101595.53;7286825;19;151899;-51
2021/09/16 11:00:09;;;;;;;;;;;;;;;21.87;79.43;101587.09;7285294;19;153293;-51
2021/09/16 11:02:38;;;;;;;;;;;;;;;21.87;79.85;101584.28;7290986;19;152061;-51
2021/09/16 11:05:10;;;;;;;;;;;;;;;21.87;79.88;101584.28;7284753;19;151842;-51
2021/09/16 11:07:52;;;;;;;;;;;;;;;21.89;79.40;101583.97;7285200;19;152066;-51
2021/09/16 11:10:39;;;;;;;;;;;;;;;21.86;79.97;101599.47;7285924;19;152017;-51
2021/09/16 11:13:26;;;;;;;;;;;;;;;21.90;79.39;101591.25;7284272;19;152709;-50
2021/09/16 11:15:53;;;;;;;;;;;;;;;21.93;79.41;101593.53;7282109;19;153726;-50
2021/09/16 11:18:42;;;;;;;;;;;;;;;21.94;79.44;101603.66;7280457;19;153054;-51
2021/09/16 11:21:09;;;;;;;;;;;;;;;21.96;79.58;101590.09;7283013;19;153636;-52
2021/09/16 11:23:38;;;;;;;;;;;;;;;21.98;79.32;101593.47;7281426;19;154392;-51
2021/09/16 11:26:05;;;;;;;;;;;;;;;22.02;79.38;101597.34;7289250;19;151799;-51
2021/09/16 11:28:33;;;;;;;;;;;;;;;22.03;79.25;101587.75;7282020;19;153508;-51
2021/09/16 11:31:00;;;;;;;;;;;;;;;22.06;78.76;101587.16;7283694;19;152014;-51
2021/09/16 11:33:27;;;;;;;;;;;;;;;22.09;79.12;101583.72;7281018;19;152771;-51
2021/09/16 11:36:03;;;;;;;;;;;;;;;22.11;78.89;101587.06;7282397;19;152726;-51
2021/09/16 11:38:30;;;;;;;;;;;;;;;22.14;78.61;101587.28;7282108;19;152163;-51
2021/09/16 11:41:00;;;;;;;;;;;;;;;22.16;78.59;101581.38;7282628;19;152613;-51
2021/09/16 11:43:27;;;;;;;;;;;;;;;22.16;78.93;101582.22;7282882;19;153727;-52
2021/09/16 11:45:54;;;;;;;;;;;;;;;22.17;78.82;101583.88;7282509;19;151835;-51
2021/09/16 11:48:22;;;;;;;;;;;;;;;22.17;78.89;101572.59;7287646;19;153877;-51
2021/09/16 11:50:52;;;;;;;;;;;;;;;22.15;78.74;101580.53;7284433;19;152102;-52
2021/09/16 11:53:22;;;;;;;;;;;;;;;22.17;78.89;101575.41;7284425;19;152797;-51
2021/09/16 11:55:50;;;;;;;;;;;;;;;22.20;78.46;101568.34;7279512;19;152720;-52
2021/09/16 11:58:18;;;;;;;;;;;;;;;22.21;78.33;101580.47;7285368;19;151868;-50
2021/09/16 12:00:48;;;;;;;;;;;;;;;22.18;78.50;101579.91;7281285;19;152726;-51
2021/09/16 12:03:18;;;;;;;;;;;;;;;22.19;78.79;101572.31;7280404;19;154023;-51
2021/09/16 12:05:48;;;;;;;;;;;;;;;22.18;78.57;101577.09;7283543;19;155251;-51
2021/09/16 12:08:18;;;;;;;;;;;;;;;22.23;78.69;101578.16;7287852;19;152852;-51
2021/09/16 12:10:47;;;;;;;;;;;;;;;22.21;78.25;101564.41;7281736;19;152295;-51
2021/09/16 12:13:16;;;;;;;;;;;;;;;22.24;78.24;101572.22;7284358;19;153619;-51
2021/09/16 12:15:44;;;;;;;;;;;;;;;22.25;78.56;101565.47;7280640;19;154114;-51
2021/09/16 12:18:11;;;;;;;;;;;;;;;22.28;78.38;101572.47;7279844;19;153208;-51
2021/09/16 12:20:39;;;;;;;;;;;;;;;22.30;78.03;101570.19;7279296;19;152417;-51
2021/09/16 12:23:09;;;;;;;;;;;;;;;22.30;78.29;101562.56;7280151;19;152473;-50
2021/09/16 12:25:38;;;;;;;;;;;;;;;22.30;77.97;101565.41;7282805;19;151895;-52
2021/09/16 12:28:06;;;;;;;;;;;;;;;22.32;77.92;101563.09;7282884;19;151752;-51
2021/09/16 12:30:35;;;;;;;;;;;;;;;22.31;78.35;101558.59;7287894;19;153383;-52